createdAt,value
2022-11-05T00:01:54.604Z,10.10
2022-11-05T00:04:39.797Z,10.10
2022-11-05T00:07:38.438Z,10.10
2022-11-05T00:10:17.745Z,10.10
2022-11-05T00:13:02.840Z,10.20
2022-11-05T00:15:48.205Z,10.20
2022-11-05T00:18:15.015Z,10.30
2022-11-05T00:20:41.579Z,10.40
2022-11-05T00:23:26.655Z,10.40
2022-11-05T00:26:04.352Z,10.50
2022-11-05T00:28:32.263Z,10.60
2022-11-05T00:31:09.687Z,10.70
2022-11-05T00:33:40.854Z,10.70
2022-11-05T00:36:09.229Z,10.70
2022-11-05T00:38:36.475Z,10.80
2022-11-05T00:41:03.061Z,10.80
2022-11-05T00:43:48.469Z,10.80
2022-11-05T00:46:15.063Z,10.80
2022-11-05T00:49:01.961Z,10.90
2022-11-05T00:51:28.550Z,10.80
2022-11-05T00:53:55.136Z,10.90
2022-11-05T00:56:21.733Z,10.90
2022-11-05T00:58:48.808Z,10.90
2022-11-05T01:01:15.627Z,10.80
2022-11-05T01:03:45.122Z,10.80
2022-11-05T01:06:16.926Z,10.70
2022-11-05T01:08:45.376Z,10.70
2022-11-05T01:11:33.412Z,10.70
2022-11-05T01:14:05.695Z,10.70
2022-11-05T01:16:32.942Z,10.80
2022-11-05T01:19:00.545Z,10.80
2022-11-05T01:21:27.503Z,10.80
2022-11-05T01:23:54.333Z,10.80
2022-11-05T01:26:20.943Z,10.80
2022-11-05T01:29:05.776Z,10.80
2022-11-05T01:31:32.497Z,10.90
2022-11-05T01:34:00.626Z,10.90
2022-11-05T01:36:27.207Z,10.90
2022-11-05T01:38:53.884Z,10.90
2022-11-05T01:41:20.525Z,10.90
2022-11-05T01:43:56.438Z,10.90
2022-11-05T01:46:42.998Z,10.90
2022-11-05T01:49:29.384Z,10.90
2022-11-05T01:51:57.859Z,10.90
2022-11-05T01:54:29.503Z,10.90
2022-11-05T01:57:01.843Z,10.90
2022-11-05T01:59:33.265Z,10.90
2022-11-05T02:02:02.415Z,10.90
2022-11-05T02:04:44.730Z,10.90
2022-11-05T02:07:12.757Z,10.90
2022-11-05T02:09:51.549Z,10.90
2022-11-05T02:12:19.571Z,10.80
2022-11-05T02:14:46.245Z,10.70
2022-11-05T02:17:21.581Z,10.60
2022-11-05T02:20:06.547Z,10.60
2022-11-05T02:22:54.116Z,10.60
2022-11-05T02:25:23.470Z,10.50
2022-11-05T02:28:01.858Z,10.60
2022-11-05T02:30:38.295Z,10.50
2022-11-05T02:33:37.114Z,10.50
2022-11-05T02:36:17.732Z,10.50
2022-11-05T02:39:11.353Z,10.50
2022-11-05T02:42:04.659Z,10.50
2022-11-05T02:44:52.974Z,10.50
2022-11-05T02:47:29.406Z,10.60
2022-11-05T02:50:14.039Z,10.60
2022-11-05T02:52:58.128Z,10.70
2022-11-05T02:55:39.977Z,10.70
2022-11-05T02:58:06.729Z,10.70
2022-11-05T03:00:54.989Z,10.70
2022-11-05T03:03:33.813Z,10.70
2022-11-05T03:06:31.162Z,10.70
2022-11-05T03:09:35.231Z,10.70
2022-11-05T03:12:21.343Z,10.70
2022-11-05T03:14:58.850Z,10.70
2022-11-05T03:18:00.866Z,10.60
2022-11-05T03:21:05.448Z,10.50
2022-11-05T03:23:42.493Z,10.50
2022-11-05T03:26:43.174Z,10.60
2022-11-05T03:29:15.347Z,10.60
2022-11-05T03:31:45.713Z,10.60
2022-11-05T03:34:14.812Z,10.60
2022-11-05T03:36:48.333Z,10.60
2022-11-05T03:39:21.941Z,10.60
2022-11-05T03:41:51.256Z,10.60
2022-11-05T03:44:23.511Z,10.50
2022-11-05T03:46:52.608Z,10.50
2022-11-05T03:49:24.054Z,10.50
2022-11-05T03:52:01.491Z,10.40
2022-11-05T03:54:28.315Z,10.40
2022-11-05T03:57:09.590Z,10.40
2022-11-05T03:59:45.077Z,10.40
2022-11-05T04:02:13.431Z,10.40
2022-11-05T04:04:40.544Z,10.30
2022-11-05T04:07:27.233Z,10.30
2022-11-05T04:10:12.576Z,10.20
2022-11-05T04:12:57.830Z,10.10
2022-11-05T04:15:24.730Z,10.00
2022-11-05T04:17:51.342Z,9.80
2022-11-05T04:20:36.306Z,9.70
2022-11-05T04:23:25.266Z,9.60
2022-11-05T04:25:51.971Z,9.60
2022-11-05T04:28:18.568Z,9.60
2022-11-05T04:30:45.194Z,9.60
2022-11-05T04:33:13.447Z,9.70
2022-11-05T04:35:49.645Z,9.70
2022-11-05T04:38:20.293Z,9.80
2022-11-05T04:40:48.093Z,9.90
2022-11-05T04:43:17.985Z,10.00
2022-11-05T04:45:45.446Z,10.10
2022-11-05T04:48:12.372Z,10.20
2022-11-05T04:50:39.325Z,10.30
2022-11-05T04:53:05.924Z,10.30
2022-11-05T04:55:32.508Z,10.40
2022-11-05T04:57:59.181Z,10.40
2022-11-05T05:00:25.938Z,10.30
2022-11-05T05:02:52.511Z,10.30
2022-11-05T05:05:19.169Z,10.30
2022-11-05T05:07:45.746Z,10.30
2022-11-05T05:10:12.983Z,10.30
2022-11-05T05:12:39.573Z,10.30
2022-11-05T05:15:06.628Z,10.30
2022-11-05T05:17:33.180Z,10.30
2022-11-05T05:20:18.344Z,10.30
2022-11-05T05:22:51.644Z,10.40
2022-11-05T05:25:18.250Z,10.40
2022-11-05T05:27:44.880Z,10.40
2022-11-05T05:30:11.861Z,10.50
2022-11-05T05:32:38.472Z,10.50
2022-11-05T05:35:05.507Z,10.50
2022-11-05T05:37:32.086Z,10.50
2022-11-05T05:39:58.651Z,10.60
2022-11-05T05:42:25.248Z,10.50
2022-11-05T05:44:51.823Z,10.50
2022-11-05T05:47:18.435Z,10.50
2022-11-05T05:49:45.002Z,10.50
2022-11-05T05:52:11.608Z,10.40
2022-11-05T05:54:42.522Z,10.20
2022-11-05T05:57:10.357Z,10.20
2022-11-05T05:59:36.942Z,10.20
2022-11-05T06:02:03.798Z,10.20
2022-11-05T06:04:30.723Z,10.20
2022-11-05T06:06:57.338Z,10.20
2022-11-05T06:09:23.949Z,10.30
2022-11-05T06:11:53.551Z,10.30
2022-11-05T06:14:20.201Z,10.30
2022-11-05T06:16:46.794Z,10.30
2022-11-05T06:19:13.404Z,10.40
2022-11-05T06:21:39.966Z,10.40
2022-11-05T06:24:06.938Z,10.50
2022-11-05T06:26:33.497Z,10.50
2022-11-05T06:29:00.043Z,10.50
2022-11-05T06:31:26.620Z,10.60
2022-11-05T06:33:53.249Z,10.60
2022-11-05T06:36:20.443Z,10.60
2022-11-05T06:38:50.334Z,10.60
2022-11-05T06:41:16.987Z,10.60
2022-11-05T06:43:43.779Z,10.70
2022-11-05T06:46:11.644Z,10.70
2022-11-05T06:48:39.133Z,10.70
2022-11-05T06:51:07.933Z,10.70
2022-11-05T06:53:35.664Z,10.70
2022-11-05T06:56:06.699Z,10.70
2022-11-05T06:58:34.302Z,10.70
2022-11-05T07:01:07.827Z,10.70
2022-11-05T07:03:35.690Z,10.70
2022-11-05T07:06:03.402Z,10.70
2022-11-05T07:08:34.773Z,10.70
2022-11-05T07:11:01.530Z,10.70
2022-11-05T07:13:28.240Z,10.70
2022-11-05T07:15:55.085Z,10.70
2022-11-05T07:18:22.189Z,10.70
2022-11-05T07:20:49.290Z,10.80
2022-11-05T07:23:16.487Z,10.80
2022-11-05T07:25:43.634Z,10.80
2022-11-05T07:28:10.850Z,10.80
2022-11-05T07:30:37.977Z,10.80
2022-11-05T07:33:04.597Z,10.80
2022-11-05T07:35:31.561Z,10.80
2022-11-05T07:37:58.606Z,10.80
2022-11-05T07:40:28.391Z,10.80
2022-11-05T07:42:57.092Z,10.80
2022-11-05T07:45:24.826Z,10.70
2022-11-05T07:47:52.590Z,10.70
2022-11-05T07:50:21.494Z,10.70
2022-11-05T07:52:48.648Z,10.60
2022-11-05T07:55:20.975Z,10.50
2022-11-05T07:57:49.635Z,10.50
2022-11-05T08:00:21.833Z,10.40
2022-11-05T08:03:09.848Z,10.40
2022-11-05T08:05:38.942Z,10.30
2022-11-05T08:08:12.039Z,10.20
2022-11-05T08:10:39.608Z,10.20
2022-11-05T08:13:08.568Z,10.20
2022-11-05T08:15:35.874Z,10.30
2022-11-05T08:18:09.273Z,10.30
2022-11-05T08:20:36.863Z,10.30
2022-11-05T08:23:03.504Z,10.40
2022-11-05T08:25:30.461Z,10.40
2022-11-05T08:27:59.529Z,10.50
2022-11-05T08:30:26.897Z,10.50
2022-11-05T08:32:57.710Z,10.60
2022-11-05T08:35:24.988Z,10.60
2022-11-05T08:37:55.351Z,10.60
2022-11-05T08:40:21.950Z,10.60
2022-11-05T08:42:48.523Z,10.60
2022-11-05T08:45:15.291Z,10.60
2022-11-05T08:47:41.869Z,10.60
2022-11-05T08:50:08.879Z,10.60
2022-11-05T08:52:35.470Z,10.70
2022-11-05T08:55:02.069Z,10.70
2022-11-05T08:57:28.637Z,10.80
2022-11-05T08:59:55.507Z,10.80
2022-11-05T09:02:22.190Z,10.80
2022-11-05T09:04:49.070Z,10.80
2022-11-05T09:07:16.923Z,10.70
2022-11-05T09:09:43.530Z,10.60
2022-11-05T09:12:12.919Z,10.50
2022-11-05T09:14:39.837Z,10.40
2022-11-05T09:17:15.751Z,10.40
2022-11-05T09:19:42.337Z,10.40
2022-11-05T09:22:08.965Z,10.30
2022-11-05T09:24:35.560Z,10.30
2022-11-05T09:27:02.153Z,10.30
2022-11-05T09:29:28.788Z,10.30
2022-11-05T09:31:55.417Z,10.40
2022-11-05T09:34:23.629Z,10.40
2022-11-05T09:36:50.204Z,10.50
2022-11-05T09:39:16.797Z,10.50
2022-11-05T09:41:44.547Z,10.50
2022-11-05T09:44:21.416Z,10.50
2022-11-05T09:46:53.802Z,10.60
2022-11-05T09:49:24.398Z,10.70
2022-11-05T09:51:54.434Z,10.70
2022-11-05T09:54:31.658Z,10.80
2022-11-05T09:57:01.192Z,10.80
2022-11-05T09:59:34.990Z,10.90
2022-11-05T10:02:12.155Z,10.90
2022-11-05T10:04:40.575Z,10.90
2022-11-05T10:07:10.957Z,10.90
2022-11-05T10:09:45.216Z,11.00
2022-11-05T10:12:13.837Z,11.00
2022-11-05T10:14:51.570Z,11.00
2022-11-05T10:17:25.089Z,11.00
2022-11-05T10:20:33.838Z,10.90
2022-11-05T10:23:10.231Z,10.90
2022-11-05T10:25:40.925Z,10.90
2022-11-05T10:28:09.684Z,10.90
2022-11-05T10:30:37.237Z,11.00
2022-11-05T10:33:06.408Z,11.00
2022-11-05T10:35:35.414Z,11.10
2022-11-05T10:38:02.308Z,11.10
2022-11-05T10:40:53.127Z,11.10
2022-11-05T10:43:30.507Z,11.20
2022-11-05T10:46:34.489Z,11.20
2022-11-05T10:49:43.559Z,11.20
2022-11-05T10:52:22.037Z,11.20
2022-11-05T10:54:50.872Z,11.30
2022-11-05T10:57:44.042Z,11.20
2022-11-05T11:00:16.740Z,11.20
2022-11-05T11:02:45.596Z,11.20
2022-11-05T11:05:21.961Z,11.20
2022-11-05T11:08:16.556Z,11.20
2022-11-05T11:10:49.726Z,11.20
2022-11-05T11:13:24.968Z,11.10
2022-11-05T11:15:52.247Z,11.10
2022-11-05T11:18:40.219Z,11.10
2022-11-05T11:21:15.027Z,11.20
2022-11-05T11:23:43.520Z,11.20
2022-11-05T11:26:12.396Z,11.20
2022-11-05T11:28:50.615Z,11.20
2022-11-05T11:31:22.708Z,11.20
2022-11-05T11:33:56.776Z,11.20
2022-11-05T11:36:33.197Z,11.20
2022-11-05T11:39:04.383Z,11.30
2022-11-05T11:41:38.868Z,11.20
2022-11-05T11:44:23.639Z,11.20
2022-11-05T11:46:55.015Z,11.30
2022-11-05T11:49:30.620Z,11.30
2022-11-05T11:52:05.028Z,11.30
2022-11-05T11:54:34.178Z,11.20
2022-11-05T11:57:03.286Z,11.20
2022-11-05T12:00:01.884Z,11.20
2022-11-05T12:03:00.358Z,11.10
2022-11-05T12:06:04.977Z,11.20
2022-11-05T12:08:45.655Z,11.20
2022-11-05T12:11:18.572Z,11.20
2022-11-05T12:13:50.998Z,11.30
2022-11-05T12:16:30.243Z,11.30
2022-11-05T12:19:21.481Z,11.30
2022-11-05T12:21:57.554Z,11.30
2022-11-05T12:25:06.479Z,11.30
2022-11-05T12:28:05.571Z,11.20
2022-11-05T12:31:01.935Z,11.20
2022-11-05T12:33:38.389Z,11.10
2022-11-05T12:36:15.728Z,11.10
2022-11-05T12:39:27.257Z,11.20
2022-11-05T12:42:13.421Z,11.20
2022-11-05T12:44:56.208Z,11.20
2022-11-05T12:47:32.177Z,11.10
2022-11-05T12:50:16.838Z,11.10
2022-11-05T12:53:04.604Z,11.10
2022-11-05T12:55:40.075Z,11.20
2022-11-05T12:58:18.197Z,11.20
2022-11-05T13:00:50.711Z,11.20
2022-11-05T13:03:20.719Z,11.20
2022-11-05T13:06:04.545Z,11.20
2022-11-05T13:09:00.316Z,11.20
2022-11-05T13:11:59.217Z,11.20
2022-11-05T13:14:47.335Z,11.20
2022-11-05T13:17:20.188Z,11.30
2022-11-05T13:20:02.013Z,11.30
2022-11-05T13:22:47.724Z,11.30
2022-11-05T13:25:33.043Z,11.40
2022-11-05T13:28:10.233Z,11.40
2022-11-05T13:30:44.786Z,11.40
2022-11-05T13:33:51.079Z,11.50
2022-11-05T13:36:41.152Z,11.40
2022-11-05T13:39:15.662Z,11.40
2022-11-05T13:41:51.063Z,11.30
2022-11-05T13:44:49.597Z,11.30
2022-11-05T13:47:38.022Z,11.40
2022-11-05T13:50:22.579Z,11.30
2022-11-05T13:53:23.344Z,11.40
2022-11-05T13:55:55.995Z,11.40
2022-11-05T13:58:56.345Z,11.40
2022-11-05T14:01:41.010Z,11.60
2022-11-05T14:04:16.285Z,11.60
2022-11-05T14:06:43.053Z,11.60
2022-11-05T14:09:16.529Z,11.50
2022-11-05T14:11:50.288Z,11.50
2022-11-05T14:14:21.526Z,11.70
2022-11-05T14:17:14.319Z,11.80
2022-11-05T14:20:08.029Z,11.80
2022-11-05T14:22:39.424Z,11.80
2022-11-05T14:25:18.117Z,11.70
2022-11-05T14:27:47.554Z,11.70
2022-11-05T14:30:41.061Z,11.60
2022-11-05T14:33:38.372Z,11.60
2022-11-05T14:36:20.266Z,11.60
2022-11-05T14:38:52.855Z,11.60
2022-11-05T14:41:20.656Z,11.50
2022-11-05T14:43:57.534Z,11.50
2022-11-05T14:46:25.077Z,11.50
2022-11-05T14:48:58.295Z,11.50
2022-11-05T14:51:36.954Z,11.40
2022-11-05T14:54:13.420Z,11.40
2022-11-05T14:56:56.940Z,11.30
2022-11-05T14:59:31.501Z,11.30
2022-11-05T15:02:03.783Z,11.20
2022-11-05T15:04:33.756Z,11.10
2022-11-05T15:07:03.184Z,11.10
2022-11-05T15:09:48.687Z,11.00
2022-11-05T15:12:44.566Z,11.00
2022-11-05T15:15:24.850Z,11.00
2022-11-05T15:18:18.846Z,10.90
2022-11-05T15:20:48.519Z,10.90
2022-11-05T15:23:19.178Z,10.80
2022-11-05T15:25:59.910Z,10.90
2022-11-05T15:28:50.827Z,11.00
2022-11-05T15:31:41.299Z,11.00
2022-11-05T15:34:16.756Z,10.90
2022-11-05T15:36:54.294Z,10.90
2022-11-05T15:39:45.930Z,10.90
2022-11-05T15:42:14.496Z,10.90
2022-11-05T15:44:44.608Z,10.90
2022-11-05T15:47:30.464Z,10.90
2022-11-05T15:50:02.718Z,10.90
2022-11-05T15:52:36.484Z,10.90
2022-11-05T15:55:12.335Z,10.90
2022-11-05T15:57:50.673Z,10.90
2022-11-05T16:00:19.849Z,10.90
2022-11-05T16:03:13.278Z,10.90
2022-11-05T16:05:46.422Z,10.90
2022-11-05T16:08:24.362Z,10.80
2022-11-05T16:10:53.626Z,10.80
2022-11-05T16:13:41.442Z,10.80
2022-11-05T16:16:14.004Z,10.80
2022-11-05T16:18:41.599Z,10.80
2022-11-05T16:21:14.370Z,10.70
2022-11-05T16:23:49.813Z,10.60
2022-11-05T16:27:00.729Z,10.60
2022-11-05T16:29:39.045Z,10.60
2022-11-05T16:32:30.759Z,10.60
2022-11-05T16:35:01.302Z,10.60
2022-11-05T16:37:51.987Z,10.60
2022-11-05T16:40:20.803Z,10.60
2022-11-05T16:42:48.528Z,10.60
2022-11-05T16:45:17.034Z,10.60
2022-11-05T16:47:44.439Z,10.60
2022-11-05T16:50:17.695Z,10.60
2022-11-05T16:52:46.069Z,10.50
2022-11-05T16:55:14.182Z,10.50
2022-11-05T16:57:44.102Z,10.50
2022-11-05T17:00:16.299Z,10.50
2022-11-05T17:02:44.020Z,10.50
2022-11-05T17:05:24.657Z,10.50
2022-11-05T17:07:51.951Z,10.50
2022-11-05T17:10:19.707Z,10.50
2022-11-05T17:12:46.981Z,10.40
2022-11-05T17:15:31.646Z,10.40
2022-11-05T17:17:58.808Z,10.30
2022-11-05T17:20:41.477Z,10.30
2022-11-05T17:23:11.106Z,10.30
2022-11-05T17:25:39.595Z,10.20
2022-11-05T17:28:06.480Z,10.30
2022-11-05T17:30:33.440Z,10.20
2022-11-05T17:33:00.162Z,10.10
2022-11-05T17:35:27.646Z,10.10
2022-11-05T17:37:54.307Z,10.10
2022-11-05T17:40:22.625Z,10.10
2022-11-05T17:42:50.547Z,10.10
2022-11-05T17:45:17.368Z,10.10
2022-11-05T17:47:44.566Z,10.10
2022-11-05T17:50:14.096Z,10.10
2022-11-05T17:52:41.003Z,10.10
2022-11-05T17:55:16.390Z,10.10
2022-11-05T17:57:50.490Z,10.20
2022-11-05T18:00:19.895Z,10.20
2022-11-05T18:02:48.291Z,10.20
2022-11-05T18:05:17.493Z,10.20
2022-11-05T18:07:44.490Z,10.20
2022-11-05T18:10:11.601Z,10.20
2022-11-05T18:12:38.967Z,10.20
2022-11-05T18:15:07.075Z,10.20
2022-11-05T18:17:33.955Z,10.20
2022-11-05T18:20:00.960Z,10.20
2022-11-05T18:22:27.881Z,10.20
2022-11-05T18:24:54.777Z,10.20
2022-11-05T18:27:24.478Z,10.20
2022-11-05T18:29:51.224Z,10.20
2022-11-05T18:32:17.890Z,10.20
2022-11-05T18:34:44.701Z,10.10
2022-11-05T18:37:11.523Z,10.10
2022-11-05T18:39:38.474Z,10.10
2022-11-05T18:42:05.860Z,10.10
2022-11-05T18:44:37.804Z,10.00
2022-11-05T18:47:06.885Z,10.10
2022-11-05T18:49:33.784Z,10.10
2022-11-05T18:52:00.515Z,10.00
2022-11-05T18:54:27.125Z,10.00
2022-11-05T18:56:53.964Z,10.10
2022-11-05T18:59:39.192Z,10.10
2022-11-05T19:02:08.119Z,10.10
2022-11-05T19:04:36.036Z,10.10
2022-11-05T19:07:05.368Z,10.10
2022-11-05T19:09:36.740Z,10.10
2022-11-05T19:12:04.616Z,10.20
2022-11-05T19:14:31.938Z,10.20
2022-11-05T19:17:00.123Z,10.10
2022-11-05T19:19:27.153Z,10.20
2022-11-05T19:21:54.202Z,10.20
2022-11-05T19:24:20.838Z,10.30
2022-11-05T19:26:48.001Z,10.40
2022-11-05T19:29:14.661Z,10.40
2022-11-05T19:31:41.341Z,10.40
2022-11-05T19:34:08.263Z,10.40
2022-11-05T19:36:34.993Z,10.70
2022-11-05T19:39:06.240Z,10.50
2022-11-05T19:41:33.303Z,10.50
2022-11-05T19:44:01.575Z,10.50
2022-11-05T19:46:29.691Z,10.50
2022-11-05T19:48:56.552Z,10.50
2022-11-05T19:51:28.742Z,10.50
2022-11-05T19:53:56.118Z,10.40
2022-11-05T19:56:24.843Z,10.50
2022-11-05T19:58:57.207Z,10.50
2022-11-05T20:01:31.196Z,10.50
2022-11-05T20:04:12.405Z,10.50
2022-11-05T20:06:40.999Z,10.50
2022-11-05T20:17:01.161Z,10.70
2022-11-05T20:19:35.400Z,10.70
2022-11-05T20:22:02.055Z,10.80
2022-11-05T20:24:28.709Z,10.70
2022-11-05T20:26:56.286Z,10.60
2022-11-05T20:29:26.032Z,10.60
2022-11-05T20:31:54.697Z,10.40
2022-11-05T20:34:22.735Z,10.30
2022-11-05T20:36:49.712Z,10.20
2022-11-05T20:39:16.925Z,10.10
2022-11-05T20:41:43.585Z,9.90
2022-11-05T20:44:10.240Z,9.90
2022-11-05T20:46:36.876Z,9.90
2022-11-05T20:49:03.496Z,9.90
2022-11-05T20:51:30.149Z,10.00
2022-11-05T20:53:58.751Z,10.10
2022-11-05T20:56:29.320Z,10.10
2022-11-05T20:58:59.837Z,10.20
2022-11-05T21:01:28.384Z,10.20
2022-11-05T21:03:55.690Z,10.20
2022-11-05T21:06:23.006Z,10.10
2022-11-05T21:08:50.527Z,10.00
2022-11-05T21:11:18.927Z,9.70
2022-11-05T21:13:46.022Z,9.60
2022-11-05T21:16:18.234Z,9.50
2022-11-05T21:18:46.055Z,9.50
2022-11-05T21:21:16.246Z,9.50
2022-11-05T21:23:43.035Z,9.50
2022-11-05T21:26:13.817Z,9.60
2022-11-05T21:28:41.601Z,9.70
2022-11-05T21:31:08.734Z,9.80
2022-11-05T21:33:35.715Z,9.80
2022-11-05T21:36:11.074Z,9.80
2022-11-05T21:38:39.209Z,9.80
2022-11-05T21:41:07.115Z,9.90
2022-11-05T21:43:34.531Z,10.00
2022-11-05T21:46:02.837Z,10.00
2022-11-05T21:48:29.582Z,10.10
2022-11-05T21:51:15.057Z,10.20
2022-11-05T21:54:00.719Z,10.20
2022-11-05T21:56:46.280Z,10.30
2022-11-05T21:59:34.075Z,10.30
2022-11-05T22:02:04.647Z,10.30
2022-11-05T22:04:33.776Z,10.30
2022-11-05T22:07:00.944Z,10.30
2022-11-05T22:09:28.213Z,10.30
2022-11-05T22:11:55.517Z,10.30
2022-11-05T22:14:22.503Z,10.20
2022-11-05T22:16:49.251Z,10.20
2022-11-05T22:19:16.219Z,10.10
2022-11-05T22:21:44.365Z,10.10
2022-11-05T22:24:10.993Z,10.00
2022-11-05T22:26:38.737Z,10.00
2022-11-05T22:29:06.499Z,9.90
2022-11-05T22:31:36.262Z,9.60
2022-11-05T22:34:04.370Z,9.50
2022-11-05T22:36:31.967Z,9.40
2022-11-05T22:38:58.603Z,9.50
2022-11-05T22:41:25.266Z,9.60
2022-11-05T22:43:51.951Z,9.60
2022-11-05T22:46:21.129Z,9.60
2022-11-05T22:48:48.212Z,9.60
2022-11-05T22:51:20.315Z,9.70
2022-11-05T22:53:47.550Z,9.70
2022-11-05T22:56:17.313Z,9.70
2022-11-05T22:58:44.170Z,9.80
2022-11-05T23:01:12.622Z,9.80
2022-11-05T23:03:40.873Z,9.80
2022-11-05T23:06:33.558Z,9.70
2022-11-05T23:09:19.516Z,9.70
2022-11-05T23:11:52.239Z,9.70
2022-11-05T23:14:19.419Z,9.70
2022-11-05T23:17:04.793Z,9.70
2022-11-05T23:19:50.153Z,9.70
2022-11-05T23:22:38.639Z,9.70
2022-11-05T23:25:08.007Z,9.70
2022-11-05T23:27:36.839Z,9.80
2022-11-05T23:30:08.530Z,9.80
2022-11-05T23:32:35.942Z,9.90
2022-11-05T23:35:03.545Z,9.90
2022-11-05T23:37:49.655Z,9.90
2022-11-05T23:40:20.156Z,9.90
2022-11-05T23:43:05.718Z,9.90
2022-11-05T23:45:51.573Z,10.00
2022-11-05T23:48:25.299Z,10.00
2022-11-05T23:51:12.307Z,10.00
2022-11-05T23:53:40.812Z,9.90
2022-11-05T23:56:12.855Z,9.90
2022-11-05T23:58:40.615Z,9.80
